sensor_id;sensor_type;location;lat;lon;timestamp;temperature;humidity
3408;DHT22;1717;50.240;8.406;2023-04-01T00:01:05;10.60;99.90
3408;DHT22;1717;50.240;8.406;2023-04-01T00:03:32;10.60;99.90
3408;DHT22;1717;50.240;8.406;2023-04-01T00:06:00;10.60;99.90
3408;DHT22;1717;50.240;8.406;2023-04-01T00:08:28;10.60;99.90
3408;DHT22;1717;50.240;8.406;2023-04-01T00:10:55;10.60;99.90
3408;DHT22;1717;50.240;8.406;2023-04-01T00:13:23;10.60;99.90
3408;DHT22;1717;50.240;8.406;2023-04-01T00:15:52;10.60;99.90
3408;DHT22;1717;50.240;8.406;2023-04-01T00:18:20;10.50;99.90
3408;DHT22;1717;50.240;8.406;2023-04-01T00:20:48;10.60;99.90
3408;DHT22;1717;50.240;8.406;2023-04-01T00:23:16;10.60;99.90
3408;DHT22;1717;50.240;8.406;2023-04-01T00:25:44;10.70;99.90
3408;DHT22;1717;50.240;8.406;2023-04-01T00:28:13;10.60;99.90
3408;DHT22;1717;50.240;8.406;2023-04-01T00:30:40;10.60;99.90
3408;DHT22;1717;50.240;8.406;2023-04-01T00:33:08;10.50;99.90
3408;DHT22;1717;50.240;8.406;2023-04-01T00:35:35;10.50;99.90
3408;DHT22;1717;50.240;8.406;2023-04-01T00:38:02;10.50;99.90
3408;DHT22;1717;50.240;8.406;2023-04-01T00:40:32;10.50;99.90
3408;DHT22;1717;50.240;8.406;2023-04-01T00:43:00;10.50;99.90
3408;DHT22;1717;50.240;8.406;2023-04-01T00:45:33;10.50;99.90
3408;DHT22;1717;50.240;8.406;2023-04-01T00:48:03;10.50;99.90
3408;DHT22;1717;50.240;8.406;2023-04-01T00:50:33;10.50;99.90
3408;DHT22;1717;50.240;8.406;2023-04-01T00:53:01;10.50;99.90
3408;DHT22;1717;50.240;8.406;2023-04-01T00:55:32;10.50;99.90
3408;DHT22;1717;50.240;8.406;2023-04-01T00:58:02;10.50;99.90
3408;DHT22;1717;50.240;8.406;2023-04-01T01:00:29;10.50;99.90
3408;DHT22;1717;50.240;8.406;2023-04-01T01:02:56;10.50;99.90
3408;DHT22;1717;50.240;8.406;2023-04-01T01:05:32;10.40;99.90
3408;DHT22;1717;50.240;8.406;2023-04-01T01:08:10;10.50;99.90
3408;DHT22;1717;50.240;8.406;2023-04-01T01:10:39;10.50;99.90
3408;DHT22;1717;50.240;8.406;2023-04-01T01:13:11;10.50;99.90
3408;DHT22;1717;50.240;8.406;2023-04-01T01:15:46;10.50;99.90
3408;DHT22;1717;50.240;8.406;2023-04-01T01:18:19;10.50;99.90
3408;DHT22;1717;50.240;8.406;2023-04-01T01:26:57;10.50;99.90
3408;DHT22;1717;50.240;8.406;2023-04-01T01:35:24;10.50;99.90
3408;DHT22;1717;50.240;8.406;2023-04-01T01:37:56;10.50;99.90
3408;DHT22;1717;50.240;8.406;2023-04-01T01:40:25;10.50;99.90
3408;DHT22;1717;50.240;8.406;2023-04-01T01:42:56;10.40;99.90
3408;DHT22;1717;50.240;8.406;2023-04-01T01:45:25;10.50;99.90
3408;DHT22;1717;50.240;8.406;2023-04-01T01:47:53;10.40;99.90
3408;DHT22;1717;50.240;8.406;2023-04-01T01:50:24;10.40;99.90
3408;DHT22;1717;50.240;8.406;2023-04-01T01:53:03;10.40;99.90
3408;DHT22;1717;50.240;8.406;2023-04-01T01:55:31;10.40;99.90
3408;DHT22;1717;50.240;8.406;2023-04-01T01:58:02;10.50;99.90
3408;DHT22;1717;50.240;8.406;2023-04-01T02:00:33;10.50;99.90
3408;DHT22;1717;50.240;8.406;2023-04-01T02:03:00;10.50;99.90
3408;DHT22;1717;50.240;8.406;2023-04-01T02:05:30;10.50;99.90
3408;DHT22;1717;50.240;8.406;2023-04-01T02:08:01;10.40;99.90
3408;DHT22;1717;50.240;8.406;2023-04-01T02:10:31;10.50;99.90
3408;DHT22;1717;50.240;8.406;2023-04-01T02:13:05;10.50;99.90
3408;DHT22;1717;50.240;8.406;2023-04-01T02:15:39;10.50;99.90
3408;DHT22;1717;50.240;8.406;2023-04-01T02:18:07;10.50;99.90
3408;DHT22;1717;50.240;8.406;2023-04-01T02:20:37;10.50;99.90
3408;DHT22;1717;50.240;8.406;2023-04-01T02:23:07;10.50;99.90
3408;DHT22;1717;50.240;8.406;2023-04-01T02:25:36;10.50;99.90
3408;DHT22;1717;50.240;8.406;2023-04-01T02:28:06;10.40;99.90
3408;DHT22;1717;50.240;8.406;2023-04-01T02:30:35;10.40;99.90
3408;DHT22;1717;50.240;8.406;2023-04-01T02:33:03;10.40;99.90
3408;DHT22;1717;50.240;8.406;2023-04-01T02:35:34;10.40;99.90
3408;DHT22;1717;50.240;8.406;2023-04-01T02:38:03;10.30;99.90
3408;DHT22;1717;50.240;8.406;2023-04-01T02:40:41;10.30;99.90
3408;DHT22;1717;50.240;8.406;2023-04-01T02:43:09;10.30;99.90
3408;DHT22;1717;50.240;8.406;2023-04-01T02:45:36;10.30;99.90
3408;DHT22;1717;50.240;8.406;2023-04-01T02:48:04;10.30;99.90
3408;DHT22;1717;50.240;8.406;2023-04-01T02:50:31;10.30;99.90
3408;DHT22;1717;50.240;8.406;2023-04-01T02:52:58;10.30;99.90
3408;DHT22;1717;50.240;8.406;2023-04-01T02:55:26;10.30;99.90
3408;DHT22;1717;50.240;8.406;2023-04-01T02:57:53;10.30;99.90
3408;DHT22;1717;50.240;8.406;2023-04-01T03:00:20;10.30;99.90
3408;DHT22;1717;50.240;8.406;2023-04-01T03:02:46;10.30;99.90
3408;DHT22;1717;50.240;8.406;2023-04-01T03:05:13;10.30;99.90
3408;DHT22;1717;50.240;8.406;2023-04-01T03:07:40;10.30;99.90
3408;DHT22;1717;50.240;8.406;2023-04-01T03:10:08;10.30;99.90
3408;DHT22;1717;50.240;8.406;2023-04-01T03:12:36;10.20;99.90
3408;DHT22;1717;50.240;8.406;2023-04-01T03:15:04;10.30;99.90
3408;DHT22;1717;50.240;8.406;2023-04-01T03:17:31;10.20;99.90
3408;DHT22;1717;50.240;8.406;2023-04-01T03:19:58;10.20;99.90
3408;DHT22;1717;50.240;8.406;2023-04-01T03:22:25;10.10;99.90
3408;DHT22;1717;50.240;8.406;2023-04-01T03:24:52;10.10;99.90
3408;DHT22;1717;50.240;8.406;2023-04-01T03:27:19;10.10;99.90
3408;DHT22;1717;50.240;8.406;2023-04-01T03:29:47;10.10;99.90
3408;DHT22;1717;50.240;8.406;2023-04-01T03:32:14;10.20;99.90
3408;DHT22;1717;50.240;8.406;2023-04-01T03:34:41;10.20;99.90
3408;DHT22;1717;50.240;8.406;2023-04-01T03:37:08;10.20;99.90
3408;DHT22;1717;50.240;8.406;2023-04-01T03:39:34;10.10;99.90
3408;DHT22;1717;50.240;8.406;2023-04-01T03:42:01;10.10;99.90
3408;DHT22;1717;50.240;8.406;2023-04-01T03:44:30;10.10;99.90
3408;DHT22;1717;50.240;8.406;2023-04-01T03:46:59;10.10;99.90
3408;DHT22;1717;50.240;8.406;2023-04-01T03:49:26;10.00;99.90
3408;DHT22;1717;50.240;8.406;2023-04-01T03:51:53;10.00;99.90
3408;DHT22;1717;50.240;8.406;2023-04-01T03:54:20;10.00;99.90
3408;DHT22;1717;50.240;8.406;2023-04-01T03:56:47;10.00;99.90
3408;DHT22;1717;50.240;8.406;2023-04-01T03:59:14;10.00;99.90
3408;DHT22;1717;50.240;8.406;2023-04-01T04:01:41;10.00;99.90
3408;DHT22;1717;50.240;8.406;2023-04-01T04:04:10;10.10;99.90
3408;DHT22;1717;50.240;8.406;2023-04-01T04:06:38;10.00;99.90
3408;DHT22;1717;50.240;8.406;2023-04-01T04:09:05;10.00;99.90
3408;DHT22;1717;50.240;8.406;2023-04-01T04:11:32;10.00;99.90
3408;DHT22;1717;50.240;8.406;2023-04-01T04:13:59;10.00;99.90
3408;DHT22;1717;50.240;8.406;2023-04-01T04:16:26;10.00;99.90
3408;DHT22;1717;50.240;8.406;2023-04-01T04:18:52;10.00;99.90
3408;DHT22;1717;50.240;8.406;2023-04-01T04:21:21;10.00;99.90
3408;DHT22;1717;50.240;8.406;2023-04-01T04:23:48;10.00;99.90
3408;DHT22;1717;50.240;8.406;2023-04-01T04:26:16;10.00;99.90
3408;DHT22;1717;50.240;8.406;2023-04-01T04:28:42;10.00;99.90
3408;DHT22;1717;50.240;8.406;2023-04-01T04:31:09;10.00;99.90
3408;DHT22;1717;50.240;8.406;2023-04-01T04:33:36;10.00;99.90
3408;DHT22;1717;50.240;8.406;2023-04-01T04:36:04;10.00;99.90
3408;DHT22;1717;50.240;8.406;2023-04-01T04:38:32;10.00;99.90
3408;DHT22;1717;50.240;8.406;2023-04-01T04:40:59;10.00;99.90
3408;DHT22;1717;50.240;8.406;2023-04-01T04:43:26;10.00;99.90
3408;DHT22;1717;50.240;8.406;2023-04-01T04:45:53;10.00;99.90
3408;DHT22;1717;50.240;8.406;2023-04-01T04:48:20;10.00;99.90
3408;DHT22;1717;50.240;8.406;2023-04-01T04:50:48;10.00;99.90
3408;DHT22;1717;50.240;8.406;2023-04-01T04:53:16;10.00;99.90
3408;DHT22;1717;50.240;8.406;2023-04-01T04:55:44;10.00;99.90
3408;DHT22;1717;50.240;8.406;2023-04-01T04:58:13;10.00;99.90
3408;DHT22;1717;50.240;8.406;2023-04-01T05:00:40;9.90;99.90
3408;DHT22;1717;50.240;8.406;2023-04-01T05:03:07;10.00;99.90
3408;DHT22;1717;50.240;8.406;2023-04-01T05:05:34;10.00;99.90
3408;DHT22;1717;50.240;8.406;2023-04-01T05:08:00;10.00;99.90
3408;DHT22;1717;50.240;8.406;2023-04-01T05:10:27;10.00;99.90
3408;DHT22;1717;50.240;8.406;2023-04-01T05:12:56;10.00;99.90
3408;DHT22;1717;50.240;8.406;2023-04-01T05:15:23;10.00;99.90
3408;DHT22;1717;50.240;8.406;2023-04-01T05:17:49;10.00;99.90
3408;DHT22;1717;50.240;8.406;2023-04-01T05:20:16;10.00;99.90
3408;DHT22;1717;50.240;8.406;2023-04-01T05:22:43;10.00;99.90
3408;DHT22;1717;50.240;8.406;2023-04-01T05:25:10;9.90;99.90
3408;DHT22;1717;50.240;8.406;2023-04-01T05:27:37;9.90;99.90
3408;DHT22;1717;50.240;8.406;2023-04-01T05:30:06;9.90;99.90
3408;DHT22;1717;50.240;8.406;2023-04-01T05:32:33;9.90;99.90
3408;DHT22;1717;50.240;8.406;2023-04-01T05:35:00;10.00;99.90
3408;DHT22;1717;50.240;8.406;2023-04-01T05:37:27;9.90;99.90
3408;DHT22;1717;50.240;8.406;2023-04-01T05:39:53;9.90;99.90
3408;DHT22;1717;50.240;8.406;2023-04-01T05:42:20;9.90;99.90
3408;DHT22;1717;50.240;8.406;2023-04-01T05:44:47;9.90;99.90
3408;DHT22;1717;50.240;8.406;2023-04-01T05:47:15;9.70;99.90
3408;DHT22;1717;50.240;8.406;2023-04-01T05:49:42;9.80;99.90
3408;DHT22;1717;50.240;8.406;2023-04-01T05:52:09;9.80;99.90
3408;DHT22;1717;50.240;8.406;2023-04-01T05:54:35;9.80;99.90
3408;DHT22;1717;50.240;8.406;2023-04-01T05:57:03;9.80;99.90
3408;DHT22;1717;50.240;8.406;2023-04-01T05:59:29;9.80;99.90
3408;DHT22;1717;50.240;8.406;2023-04-01T06:01:57;9.70;99.90
3408;DHT22;1717;50.240;8.406;2023-04-01T06:04:28;9.70;99.90
3408;DHT22;1717;50.240;8.406;2023-04-01T06:06:58;9.70;99.90
3408;DHT22;1717;50.240;8.406;2023-04-01T06:09:28;9.70;99.90
3408;DHT22;1717;50.240;8.406;2023-04-01T06:12:13;9.80;99.90
3408;DHT22;1717;50.240;8.406;2023-04-01T06:14:46;9.80;99.90
3408;DHT22;1717;50.240;8.406;2023-04-01T06:17:26;9.70;99.90
3408;DHT22;1717;50.240;8.406;2023-04-01T06:20:04;9.80;99.90
3408;DHT22;1717;50.240;8.406;2023-04-01T06:26:01;9.70;99.90
3408;DHT22;1717;50.240;8.406;2023-04-01T06:28:45;9.70;99.90
3408;DHT22;1717;50.240;8.406;2023-04-01T06:31:24;9.70;99.90
3408;DHT22;1717;50.240;8.406;2023-04-01T06:34:02;9.60;99.90
3408;DHT22;1717;50.240;8.406;2023-04-01T06:36:48;9.60;99.90
3408;DHT22;1717;50.240;8.406;2023-04-01T06:39:37;9.70;99.90
3408;DHT22;1717;50.240;8.406;2023-04-01T06:42:18;9.60;99.90
3408;DHT22;1717;50.240;8.406;2023-04-01T06:44:56;9.70;99.90
3408;DHT22;1717;50.240;8.406;2023-04-01T06:47:42;9.70;99.90
3408;DHT22;1717;50.240;8.406;2023-04-01T06:50:19;9.70;99.90
3408;DHT22;1717;50.240;8.406;2023-04-01T06:52:55;9.80;99.90
3408;DHT22;1717;50.240;8.406;2023-04-01T06:55:27;9.80;99.90
3408;DHT22;1717;50.240;8.406;2023-04-01T06:58:00;9.70;99.90
3408;DHT22;1717;50.240;8.406;2023-04-01T07:00:36;9.80;99.90
3408;DHT22;1717;50.240;8.406;2023-04-01T07:03:10;9.80;99.90
3408;DHT22;1717;50.240;8.406;2023-04-01T07:05:42;9.80;99.90
3408;DHT22;1717;50.240;8.406;2023-04-01T07:08:15;9.90;99.90
3408;DHT22;1717;50.240;8.406;2023-04-01T07:10:47;9.90;99.90
3408;DHT22;1717;50.240;8.406;2023-04-01T07:13:18;10.00;99.90
3408;DHT22;1717;50.240;8.406;2023-04-01T07:16:03;10.00;99.90
3408;DHT22;1717;50.240;8.406;2023-04-01T07:18:37;10.00;99.90
3408;DHT22;1717;50.240;8.406;2023-04-01T07:21:10;10.10;99.90
3408;DHT22;1717;50.240;8.406;2023-04-01T07:23:44;10.10;99.90
3408;DHT22;1717;50.240;8.406;2023-04-01T07:26:17;10.10;99.90
3408;DHT22;1717;50.240;8.406;2023-04-01T07:28:46;10.20;99.90
3408;DHT22;1717;50.240;8.406;2023-04-01T07:31:22;10.10;99.90
3408;DHT22;1717;50.240;8.406;2023-04-01T07:33:59;10.20;99.90
3408;DHT22;1717;50.240;8.406;2023-04-01T07:36:33;10.20;99.90
3408;DHT22;1717;50.240;8.406;2023-04-01T07:39:12;10.10;99.90
3408;DHT22;1717;50.240;8.406;2023-04-01T07:41:50;10.20;99.90
3408;DHT22;1717;50.240;8.406;2023-04-01T07:44:24;10.30;99.90
3408;DHT22;1717;50.240;8.406;2023-04-01T07:47:16;10.30;99.90
3408;DHT22;1717;50.240;8.406;2023-04-01T07:49:55;10.30;99.90
3408;DHT22;1717;50.240;8.406;2023-04-01T07:52:31;10.30;99.90
3408;DHT22;1717;50.240;8.406;2023-04-01T07:55:06;10.40;99.90
3408;DHT22;1717;50.240;8.406;2023-04-01T07:57:40;10.30;99.90
3408;DHT22;1717;50.240;8.406;2023-04-01T08:00:14;10.30;99.90
3408;DHT22;1717;50.240;8.406;2023-04-01T08:02:52;10.50;99.90
3408;DHT22;1717;50.240;8.406;2023-04-01T08:05:25;10.40;99.90
3408;DHT22;1717;50.240;8.406;2023-04-01T08:07:58;10.40;99.90
3408;DHT22;1717;50.240;8.406;2023-04-01T08:10:33;10.50;99.90
3408;DHT22;1717;50.240;8.406;2023-04-01T08:13:09;10.50;99.90
3408;DHT22;1717;50.240;8.406;2023-04-01T08:15:47;10.50;99.90
3408;DHT22;1717;50.240;8.406;2023-04-01T08:18:21;10.50;99.90
3408;DHT22;1717;50.240;8.406;2023-04-01T08:20:55;10.50;99.90
3408;DHT22;1717;50.240;8.406;2023-04-01T08:23:26;10.40;99.90
3408;DHT22;1717;50.240;8.406;2023-04-01T08:25:59;10.50;99.90
3408;DHT22;1717;50.240;8.406;2023-04-01T08:28:30;10.50;99.90
3408;DHT22;1717;50.240;8.406;2023-04-01T08:31:02;10.50;99.90
3408;DHT22;1717;50.240;8.406;2023-04-01T08:33:30;10.50;99.90
3408;DHT22;1717;50.240;8.406;2023-04-01T08:36:03;10.60;99.90
3408;DHT22;1717;50.240;8.406;2023-04-01T08:38:32;10.70;99.90
3408;DHT22;1717;50.240;8.406;2023-04-01T08:41:13;10.60;99.90
3408;DHT22;1717;50.240;8.406;2023-04-01T08:43:54;10.60;99.90
3408;DHT22;1717;50.240;8.406;2023-04-01T08:46:54;10.60;99.90
3408;DHT22;1717;50.240;8.406;2023-04-01T08:49:38;10.80;99.90
3408;DHT22;1717;50.240;8.406;2023-04-01T08:52:21;10.80;99.90
3408;DHT22;1717;50.240;8.406;2023-04-01T08:58:04;10.70;99.90
3408;DHT22;1717;50.240;8.406;2023-04-01T09:00:44;10.70;99.90
3408;DHT22;1717;50.240;8.406;2023-04-01T09:03:44;10.60;99.90
3408;DHT22;1717;50.240;8.406;2023-04-01T09:06:29;10.70;99.90
3408;DHT22;1717;50.240;8.406;2023-04-01T09:09:19;10.60;99.90
3408;DHT22;1717;50.240;8.406;2023-04-01T09:12:24;10.70;99.90
3408;DHT22;1717;50.240;8.406;2023-04-01T09:15:16;10.70;99.90
3408;DHT22;1717;50.240;8.406;2023-04-01T09:17:57;10.80;99.90
3408;DHT22;1717;50.240;8.406;2023-04-01T09:23:40;10.80;99.90
3408;DHT22;1717;50.240;8.406;2023-04-01T09:26:29;11.00;99.90
3408;DHT22;1717;50.240;8.406;2023-04-01T09:29:10;10.90;99.90
3408;DHT22;1717;50.240;8.406;2023-04-01T09:32:04;10.90;99.90
3408;DHT22;1717;50.240;8.406;2023-04-01T09:34:53;11.00;99.90
3408;DHT22;1717;50.240;8.406;2023-04-01T09:37:24;11.00;99.90
3408;DHT22;1717;50.240;8.406;2023-04-01T09:40:16;11.10;99.90
3408;DHT22;1717;50.240;8.406;2023-04-01T09:42:49;11.20;99.90
3408;DHT22;1717;50.240;8.406;2023-04-01T09:45:35;11.20;99.90
3408;DHT22;1717;50.240;8.406;2023-04-01T09:48:15;11.20;99.90
3408;DHT22;1717;50.240;8.406;2023-04-01T09:50:52;11.20;99.90
3408;DHT22;1717;50.240;8.406;2023-04-01T09:53:36;11.30;99.90
3408;DHT22;1717;50.240;8.406;2023-04-01T09:56:23;11.20;99.90
3408;DHT22;1717;50.240;8.406;2023-04-01T10:02:40;11.30;99.90
3408;DHT22;1717;50.240;8.406;2023-04-01T10:05:49;11.30;99.90
3408;DHT22;1717;50.240;8.406;2023-04-01T10:21:05;11.40;99.90
3408;DHT22;1717;50.240;8.406;2023-04-01T10:26:54;11.50;99.90
3408;DHT22;1717;50.240;8.406;2023-04-01T10:30:22;11.40;99.90
3408;DHT22;1717;50.240;8.406;2023-04-01T10:33:30;11.40;99.90
3408;DHT22;1717;50.240;8.406;2023-04-01T10:36:24;11.30;99.90
3408;DHT22;1717;50.240;8.406;2023-04-01T10:42:27;11.40;99.90
3408;DHT22;1717;50.240;8.406;2023-04-01T10:45:33;11.50;99.90
3408;DHT22;1717;50.240;8.406;2023-04-01T10:48:20;11.50;99.90
3408;DHT22;1717;50.240;8.406;2023-04-01T10:51:27;11.60;99.90
3408;DHT22;1717;50.240;8.406;2023-04-01T10:54:21;11.70;99.90
3408;DHT22;1717;50.240;8.406;2023-04-01T10:56:59;11.70;99.90
3408;DHT22;1717;50.240;8.406;2023-04-01T11:00:05;11.70;99.90
3408;DHT22;1717;50.240;8.406;2023-04-01T11:03:14;11.70;99.90
3408;DHT22;1717;50.240;8.406;2023-04-01T11:06:16;11.80;99.90
3408;DHT22;1717;50.240;8.406;2023-04-01T11:15:31;11.80;99.90
3408;DHT22;1717;50.240;8.406;2023-04-01T11:18:36;11.90;99.90
3408;DHT22;1717;50.240;8.406;2023-04-01T11:21:43;11.90;99.90
3408;DHT22;1717;50.240;8.406;2023-04-01T11:24:33;11.90;99.90
3408;DHT22;1717;50.240;8.406;2023-04-01T11:27:14;11.90;99.90
3408;DHT22;1717;50.240;8.406;2023-04-01T11:29:57;12.00;99.90
3408;DHT22;1717;50.240;8.406;2023-04-01T11:32:39;11.90;99.90
3408;DHT22;1717;50.240;8.406;2023-04-01T11:35:26;12.00;99.90
3408;DHT22;1717;50.240;8.406;2023-04-01T11:38:06;12.00;99.90
3408;DHT22;1717;50.240;8.406;2023-04-01T11:40:41;12.10;99.90
3408;DHT22;1717;50.240;8.406;2023-04-01T11:43:19;12.10;99.90
3408;DHT22;1717;50.240;8.406;2023-04-01T11:45:52;12.10;99.90
3408;DHT22;1717;50.240;8.406;2023-04-01T11:48:36;12.10;99.90
3408;DHT22;1717;50.240;8.406;2023-04-01T11:51:28;12.20;99.90
3408;DHT22;1717;50.240;8.406;2023-04-01T11:54:04;12.20;99.90
3408;DHT22;1717;50.240;8.406;2023-04-01T11:56:51;12.30;99.90
3408;DHT22;1717;50.240;8.406;2023-04-01T11:59:47;12.30;99.90
3408;DHT22;1717;50.240;8.406;2023-04-01T12:02:23;12.30;99.90
3408;DHT22;1717;50.240;8.406;2023-04-01T12:05:01;12.30;99.90
3408;DHT22;1717;50.240;8.406;2023-04-01T12:08:00;12.30;99.90
3408;DHT22;1717;50.240;8.406;2023-04-01T12:10:37;12.20;99.90
3408;DHT22;1717;50.240;8.406;2023-04-01T12:13:11;12.30;99.90
3408;DHT22;1717;50.240;8.406;2023-04-01T12:15:54;12.30;99.90
3408;DHT22;1717;50.240;8.406;2023-04-01T12:18:27;12.30;99.90
3408;DHT22;1717;50.240;8.406;2023-04-01T12:20:59;12.40;99.90
3408;DHT22;1717;50.240;8.406;2023-04-01T12:23:48;12.40;99.90
3408;DHT22;1717;50.240;8.406;2023-04-01T12:26:40;12.50;99.90
3408;DHT22;1717;50.240;8.406;2023-04-01T12:29:37;12.50;99.90
3408;DHT22;1717;50.240;8.406;2023-04-01T12:32:16;12.50;99.90
3408;DHT22;1717;50.240;8.406;2023-04-01T12:35:14;12.50;99.90
3408;DHT22;1717;50.240;8.406;2023-04-01T12:37:51;12.50;99.90
3408;DHT22;1717;50.240;8.406;2023-04-01T12:40:39;12.40;99.90
3408;DHT22;1717;50.240;8.406;2023-04-01T12:43:28;12.40;99.90
3408;DHT22;1717;50.240;8.406;2023-04-01T12:46:08;12.40;99.90
3408;DHT22;1717;50.240;8.406;2023-04-01T12:48:58;12.40;99.90
3408;DHT22;1717;50.240;8.406;2023-04-01T12:57:33;12.40;99.90
3408;DHT22;1717;50.240;8.406;2023-04-01T13:00:17;12.40;99.90
3408;DHT22;1717;50.240;8.406;2023-04-01T13:03:00;12.40;99.90
3408;DHT22;1717;50.240;8.406;2023-04-01T13:08:36;12.40;99.90
3408;DHT22;1717;50.240;8.406;2023-04-01T13:11:19;12.50;99.90
3408;DHT22;1717;50.240;8.406;2023-04-01T13:14:24;12.50;99.90
3408;DHT22;1717;50.240;8.406;2023-04-01T13:16:59;12.60;99.90
3408;DHT22;1717;50.240;8.406;2023-04-01T13:19:34;12.60;99.90
3408;DHT22;1717;50.240;8.406;2023-04-01T13:22:07;12.60;99.90
3408;DHT22;1717;50.240;8.406;2023-04-01T13:24:41;12.60;99.90
3408;DHT22;1717;50.240;8.406;2023-04-01T13:27:14;12.60;99.90
3408;DHT22;1717;50.240;8.406;2023-04-01T13:29:48;12.60;99.90
3408;DHT22;1717;50.240;8.406;2023-04-01T13:32:24;12.60;99.90
3408;DHT22;1717;50.240;8.406;2023-04-01T13:35:08;12.60;99.90
3408;DHT22;1717;50.240;8.406;2023-04-01T13:37:57;12.60;99.90
3408;DHT22;1717;50.240;8.406;2023-04-01T13:40:33;12.70;99.90
3408;DHT22;1717;50.240;8.406;2023-04-01T13:43:12;12.60;99.90
3408;DHT22;1717;50.240;8.406;2023-04-01T13:45:54;12.60;99.90
3408;DHT22;1717;50.240;8.406;2023-04-01T13:48:36;12.60;99.90
3408;DHT22;1717;50.240;8.406;2023-04-01T13:51:32;12.60;99.90
3408;DHT22;1717;50.240;8.406;2023-04-01T13:54:34;12.50;99.90
3408;DHT22;1717;50.240;8.406;2023-04-01T13:57:23;12.60;99.90
3408;DHT22;1717;50.240;8.406;2023-04-01T14:00:03;12.50;99.90
3408;DHT22;1717;50.240;8.406;2023-04-01T14:05:47;12.60;99.90
3408;DHT22;1717;50.240;8.406;2023-04-01T14:08:33;12.60;99.90
3408;DHT22;1717;50.240;8.406;2023-04-01T14:11:12;12.60;99.90
3408;DHT22;1717;50.240;8.406;2023-04-01T14:13:47;12.70;99.90
3408;DHT22;1717;50.240;8.406;2023-04-01T14:16:34;12.70;99.90
3408;DHT22;1717;50.240;8.406;2023-04-01T14:19:16;12.70;99.90
3408;DHT22;1717;50.240;8.406;2023-04-01T14:21:58;12.60;99.90
3408;DHT22;1717;50.240;8.406;2023-04-01T14:24:41;12.60;99.90
3408;DHT22;1717;50.240;8.406;2023-04-01T14:27:31;12.60;99.90
3408;DHT22;1717;50.240;8.406;2023-04-01T14:30:20;12.70;99.90
3408;DHT22;1717;50.240;8.406;2023-04-01T14:32:56;12.60;99.90
3408;DHT22;1717;50.240;8.406;2023-04-01T14:35:33;12.70;99.90
3408;DHT22;1717;50.240;8.406;2023-04-01T14:38:22;12.60;99.90
3408;DHT22;1717;50.240;8.406;2023-04-01T14:40:56;12.70;99.90
3408;DHT22;1717;50.240;8.406;2023-04-01T14:43:39;12.70;99.90
3408;DHT22;1717;50.240;8.406;2023-04-01T14:49:21;12.70;99.90
3408;DHT22;1717;50.240;8.406;2023-04-01T14:51:52;12.70;99.90
3408;DHT22;1717;50.240;8.406;2023-04-01T14:54:21;12.70;99.90
3408;DHT22;1717;50.240;8.406;2023-04-01T14:57:05;12.70;99.90
3408;DHT22;1717;50.240;8.406;2023-04-01T14:59:40;12.70;99.90
3408;DHT22;1717;50.240;8.406;2023-04-01T15:02:18;12.70;99.90
3408;DHT22;1717;50.240;8.406;2023-04-01T15:04:58;12.70;99.90
3408;DHT22;1717;50.240;8.406;2023-04-01T15:08:00;12.70;99.90
3408;DHT22;1717;50.240;8.406;2023-04-01T15:13:46;12.60;99.90
3408;DHT22;1717;50.240;8.406;2023-04-01T15:16:25;12.60;99.90
3408;DHT22;1717;50.240;8.406;2023-04-01T15:19:01;12.60;99.90
3408;DHT22;1717;50.240;8.406;2023-04-01T15:21:50;12.60;99.90
3408;DHT22;1717;50.240;8.406;2023-04-01T15:24:24;12.50;99.90
3408;DHT22;1717;50.240;8.406;2023-04-01T15:27:11;12.50;99.90
3408;DHT22;1717;50.240;8.406;2023-04-01T15:32:45;12.40;99.90
3408;DHT22;1717;50.240;8.406;2023-04-01T15:35:21;12.40;99.90
3408;DHT22;1717;50.240;8.406;2023-04-01T15:37:55;12.40;99.90
3408;DHT22;1717;50.240;8.406;2023-04-01T15:40:26;12.40;99.90
3408;DHT22;1717;50.240;8.406;2023-04-01T15:43:07;12.40;99.90
3408;DHT22;1717;50.240;8.406;2023-04-01T15:45:43;12.40;99.90
3408;DHT22;1717;50.240;8.406;2023-04-01T15:48:22;12.40;99.90
3408;DHT22;1717;50.240;8.406;2023-04-01T15:51:06;12.40;99.90
3408;DHT22;1717;50.240;8.406;2023-04-01T15:53:56;12.40;99.90
3408;DHT22;1717;50.240;8.406;2023-04-01T15:56:45;12.40;99.90
3408;DHT22;1717;50.240;8.406;2023-04-01T15:59:28;12.50;99.90
3408;DHT22;1717;50.240;8.406;2023-04-01T16:02:01;12.50;99.90
3408;DHT22;1717;50.240;8.406;2023-04-01T16:04:46;12.50;99.90
3408;DHT22;1717;50.240;8.406;2023-04-01T16:07:30;12.50;99.90
3408;DHT22;1717;50.240;8.406;2023-04-01T16:10:22;12.50;99.90
3408;DHT22;1717;50.240;8.406;2023-04-01T16:13:00;12.50;99.90
3408;DHT22;1717;50.240;8.406;2023-04-01T16:15:39;12.50;99.90
3408;DHT22;1717;50.240;8.406;2023-04-01T16:18:36;12.60;99.90
3408;DHT22;1717;50.240;8.406;2023-04-01T16:21:12;12.60;99.90
3408;DHT22;1717;50.240;8.406;2023-04-01T16:23:47;12.60;99.90
3408;DHT22;1717;50.240;8.406;2023-04-01T16:26:22;12.60;99.90
3408;DHT22;1717;50.240;8.406;2023-04-01T16:28:55;12.60;99.90
3408;DHT22;1717;50.240;8.406;2023-04-01T16:31:30;12.70;99.90
3408;DHT22;1717;50.240;8.406;2023-04-01T16:34:02;12.70;99.90
3408;DHT22;1717;50.240;8.406;2023-04-01T16:36:37;12.70;99.90
3408;DHT22;1717;50.240;8.406;2023-04-01T16:39:22;12.70;99.90
3408;DHT22;1717;50.240;8.406;2023-04-01T16:42:09;12.70;99.90
3408;DHT22;1717;50.240;8.406;2023-04-01T16:44:49;12.70;99.90
3408;DHT22;1717;50.240;8.406;2023-04-01T16:47:19;12.70;99.90
3408;DHT22;1717;50.240;8.406;2023-04-01T16:49:51;12.70;99.90
3408;DHT22;1717;50.240;8.406;2023-04-01T16:52:36;12.60;99.90
3408;DHT22;1717;50.240;8.406;2023-04-01T16:55:16;12.60;99.90
3408;DHT22;1717;50.240;8.406;2023-04-01T16:57:48;12.50;99.90
3408;DHT22;1717;50.240;8.406;2023-04-01T17:00:23;12.40;99.90
3408;DHT22;1717;50.240;8.406;2023-04-01T17:03:02;12.30;99.90
3408;DHT22;1717;50.240;8.406;2023-04-01T17:05:41;12.30;99.90
3408;DHT22;1717;50.240;8.406;2023-04-01T17:08:17;12.20;99.90
3408;DHT22;1717;50.240;8.406;2023-04-01T17:10:52;12.30;99.90
3408;DHT22;1717;50.240;8.406;2023-04-01T17:13:35;12.30;99.90
3408;DHT22;1717;50.240;8.406;2023-04-01T17:16:34;12.20;99.90
3408;DHT22;1717;50.240;8.406;2023-04-01T17:19:14;12.20;99.90
3408;DHT22;1717;50.240;8.406;2023-04-01T17:21:53;12.30;99.90
3408;DHT22;1717;50.240;8.406;2023-04-01T17:24:36;12.40;99.90
3408;DHT22;1717;50.240;8.406;2023-04-01T17:27:18;12.30;99.90
3408;DHT22;1717;50.240;8.406;2023-04-01T17:30:26;12.30;99.90
3408;DHT22;1717;50.240;8.406;2023-04-01T17:33:25;12.20;99.90
3408;DHT22;1717;50.240;8.406;2023-04-01T17:35:58;12.20;99.90
3408;DHT22;1717;50.240;8.406;2023-04-01T17:38:39;12.20;99.90
3408;DHT22;1717;50.240;8.406;2023-04-01T17:41:19;12.20;99.90
3408;DHT22;1717;50.240;8.406;2023-04-01T17:43:57;12.20;99.90
3408;DHT22;1717;50.240;8.406;2023-04-01T17:46:36;12.20;99.90
3408;DHT22;1717;50.240;8.406;2023-04-01T17:49:19;12.20;99.90
3408;DHT22;1717;50.240;8.406;2023-04-01T17:51:54;12.20;99.90
3408;DHT22;1717;50.240;8.406;2023-04-01T17:54:28;12.20;99.90
3408;DHT22;1717;50.240;8.406;2023-04-01T17:57:10;12.10;99.90
3408;DHT22;1717;50.240;8.406;2023-04-01T17:59:53;12.10;99.90
3408;DHT22;1717;50.240;8.406;2023-04-01T18:02:29;12.10;99.90
3408;DHT22;1717;50.240;8.406;2023-04-01T18:05:17;12.10;99.90
3408;DHT22;1717;50.240;8.406;2023-04-01T18:08:03;12.10;99.90
3408;DHT22;1717;50.240;8.406;2023-04-01T18:10:40;12.10;99.90
3408;DHT22;1717;50.240;8.406;2023-04-01T18:13:31;12.10;99.90
3408;DHT22;1717;50.240;8.406;2023-04-01T18:16:11;12.00;99.90